sensor_id;sensor_type;location;lat;lon;timestamp;P1;durP1;ratioP1;P2;durP2;ratioP2
18592;SDS011;9426;54.118;17.948;2022-09-02T00:04:49;4.57;;;2.27;;
18592;SDS011;9426;54.118;17.948;2022-09-02T00:10:12;3.27;;;2.00;;
18592;SDS011;9426;54.118;17.948;2022-09-02T00:15:37;3.87;;;2.30;;
18592;SDS011;9426;54.118;17.948;2022-09-02T00:21:01;5.83;;;2.43;;
18592;SDS011;9426;54.118;17.948;2022-09-02T00:26:25;5.17;;;2.97;;
18592;SDS011;9426;54.118;17.948;2022-09-02T00:31:50;6.47;;;2.40;;
18592;SDS011;9426;54.118;17.948;2022-09-02T00:37:13;3.67;;;2.20;;
18592;SDS011;9426;54.118;17.948;2022-09-02T00:42:38;4.53;;;3.00;;
18592;SDS011;9426;54.118;17.948;2022-09-02T00:48:03;5.07;;;2.60;;
18592;SDS011;9426;54.118;17.948;2022-09-02T00:53:27;4.43;;;2.70;;
18592;SDS011;9426;54.118;17.948;2022-09-02T00:58:52;5.17;;;3.00;;
18592;SDS011;9426;54.118;17.948;2022-09-02T01:04:18;4.30;;;2.70;;
18592;SDS011;9426;54.118;17.948;2022-09-02T01:09:41;7.03;;;3.27;;
18592;SDS011;9426;54.118;17.948;2022-09-02T01:15:06;9.37;;;3.90;;
18592;SDS011;9426;54.118;17.948;2022-09-02T01:20:33;6.77;;;3.43;;
18592;SDS011;9426;54.118;17.948;2022-09-02T01:25:59;5.90;;;3.43;;
18592;SDS011;9426;54.118;17.948;2022-09-02T01:31:23;7.27;;;3.77;;
18592;SDS011;9426;54.118;17.948;2022-09-02T01:36:46;6.90;;;3.33;;
18592;SDS011;9426;54.118;17.948;2022-09-02T01:42:11;6.53;;;3.67;;
18592;SDS011;9426;54.118;17.948;2022-09-02T01:47:36;6.13;;;3.27;;
18592;SDS011;9426;54.118;17.948;2022-09-02T01:53:00;5.90;;;3.37;;
18592;SDS011;9426;54.118;17.948;2022-09-02T01:58:26;5.70;;;3.47;;
18592;SDS011;9426;54.118;17.948;2022-09-02T02:03:50;5.30;;;2.90;;
18592;SDS011;9426;54.118;17.948;2022-09-02T02:09:16;3.53;;;2.77;;
18592;SDS011;9426;54.118;17.948;2022-09-02T02:14:42;4.13;;;2.50;;
18592;SDS011;9426;54.118;17.948;2022-09-02T02:20:06;5.83;;;2.80;;
18592;SDS011;9426;54.118;17.948;2022-09-02T02:25:31;5.30;;;2.67;;
18592;SDS011;9426;54.118;17.948;2022-09-02T02:30:56;3.47;;;2.00;;
18592;SDS011;9426;54.118;17.948;2022-09-02T02:36:20;3.63;;;2.00;;
18592;SDS011;9426;54.118;17.948;2022-09-02T02:41:43;3.37;;;2.20;;
18592;SDS011;9426;54.118;17.948;2022-09-02T02:47:10;3.33;;;2.43;;
18592;SDS011;9426;54.118;17.948;2022-09-02T02:52:34;3.37;;;2.10;;
18592;SDS011;9426;54.118;17.948;2022-09-02T02:57:57;4.37;;;2.50;;
18592;SDS011;9426;54.118;17.948;2022-09-02T03:03:23;2.80;;;2.17;;
18592;SDS011;9426;54.118;17.948;2022-09-02T03:08:49;2.03;;;1.70;;
18592;SDS011;9426;54.118;17.948;2022-09-02T03:14:14;4.40;;;2.40;;
18592;SDS011;9426;54.118;17.948;2022-09-02T03:19:41;3.00;;;2.10;;
18592;SDS011;9426;54.118;17.948;2022-09-02T03:25:05;4.23;;;2.30;;
18592;SDS011;9426;54.118;17.948;2022-09-02T03:30:31;4.17;;;2.13;;
18592;SDS011;9426;54.118;17.948;2022-09-02T03:35:57;3.40;;;1.90;;
18592;SDS011;9426;54.118;17.948;2022-09-02T03:41:21;4.20;;;1.70;;
18592;SDS011;9426;54.118;17.948;2022-09-02T03:46:47;2.93;;;2.10;;
18592;SDS011;9426;54.118;17.948;2022-09-02T03:52:12;4.20;;;2.40;;
18592;SDS011;9426;54.118;17.948;2022-09-02T03:57:35;3.90;;;2.67;;
18592;SDS011;9426;54.118;17.948;2022-09-02T04:02:59;3.67;;;2.37;;
18592;SDS011;9426;54.118;17.948;2022-09-02T04:08:26;3.87;;;2.33;;
18592;SDS011;9426;54.118;17.948;2022-09-02T04:13:54;3.73;;;1.97;;
18592;SDS011;9426;54.118;17.948;2022-09-02T04:19:19;3.40;;;2.40;;
18592;SDS011;9426;54.118;17.948;2022-09-02T04:24:45;2.23;;;1.80;;
18592;SDS011;9426;54.118;17.948;2022-09-02T04:30:10;2.53;;;1.80;;
18592;SDS011;9426;54.118;17.948;2022-09-02T04:35:38;4.03;;;2.57;;
18592;SDS011;9426;54.118;17.948;2022-09-02T04:41:06;2.90;;;2.17;;
18592;SDS011;9426;54.118;17.948;2022-09-02T04:46:31;3.60;;;2.00;;
18592;SDS011;9426;54.118;17.948;2022-09-02T04:51:55;4.10;;;2.20;;
18592;SDS011;9426;54.118;17.948;2022-09-02T04:57:21;3.17;;;1.67;;
18592;SDS011;9426;54.118;17.948;2022-09-02T05:02:45;4.97;;;2.00;;
18592;SDS011;9426;54.118;17.948;2022-09-02T05:08:09;2.50;;;1.40;;
18592;SDS011;9426;54.118;17.948;2022-09-02T05:13:37;3.43;;;2.10;;
18592;SDS011;9426;54.118;17.948;2022-09-02T05:19:01;2.23;;;1.53;;
18592;SDS011;9426;54.118;17.948;2022-09-02T05:24:31;2.20;;;1.40;;
18592;SDS011;9426;54.118;17.948;2022-09-02T05:30:01;2.07;;;1.20;;
18592;SDS011;9426;54.118;17.948;2022-09-02T05:35:27;1.93;;;1.33;;
18592;SDS011;9426;54.118;17.948;2022-09-02T05:40:51;2.43;;;1.20;;
18592;SDS011;9426;54.118;17.948;2022-09-02T05:46:17;2.10;;;1.17;;
18592;SDS011;9426;54.118;17.948;2022-09-02T05:51:46;2.97;;;1.13;;
18592;SDS011;9426;54.118;17.948;2022-09-02T05:57:15;1.87;;;1.20;;
18592;SDS011;9426;54.118;17.948;2022-09-02T06:03:06;3.23;;;1.07;;
18592;SDS011;9426;54.118;17.948;2022-09-02T06:08:31;1.80;;;1.00;;
18592;SDS011;9426;54.118;17.948;2022-09-02T06:13:56;1.50;;;1.00;;
18592;SDS011;9426;54.118;17.948;2022-09-02T06:19:21;2.10;;;1.07;;
18592;SDS011;9426;54.118;17.948;2022-09-02T06:24:47;1.80;;;1.00;;
18592;SDS011;9426;54.118;17.948;2022-09-02T06:30:14;1.40;;;1.00;;
18592;SDS011;9426;54.118;17.948;2022-09-02T06:35:40;1.43;;;1.00;;
18592;SDS011;9426;54.118;17.948;2022-09-02T06:41:06;2.53;;;0.90;;
18592;SDS011;9426;54.118;17.948;2022-09-02T06:46:35;2.47;;;1.13;;
18592;SDS011;9426;54.118;17.948;2022-09-02T06:52:02;1.57;;;1.07;;
18592;SDS011;9426;54.118;17.948;2022-09-02T06:57:29;1.83;;;1.10;;
18592;SDS011;9426;54.118;17.948;2022-09-02T07:02:55;2.23;;;1.00;;
18592;SDS011;9426;54.118;17.948;2022-09-02T07:08:33;17.83;;;1.77;;
18592;SDS011;9426;54.118;17.948;2022-09-02T07:13:58;3.83;;;1.23;;
18592;SDS011;9426;54.118;17.948;2022-09-02T07:19:22;1.60;;;1.03;;
18592;SDS011;9426;54.118;17.948;2022-09-02T07:24:49;3.47;;;1.00;;
18592;SDS011;9426;54.118;17.948;2022-09-02T07:30:13;1.43;;;0.90;;
18592;SDS011;9426;54.118;17.948;2022-09-02T07:35:39;1.70;;;0.83;;
18592;SDS011;9426;54.118;17.948;2022-09-02T07:41:05;1.83;;;0.70;;
18592;SDS011;9426;54.118;17.948;2022-09-02T07:46:29;1.60;;;0.80;;
18592;SDS011;9426;54.118;17.948;2022-09-02T07:51:53;1.73;;;0.90;;
18592;SDS011;9426;54.118;17.948;2022-09-02T07:57:18;1.83;;;0.87;;
18592;SDS011;9426;54.118;17.948;2022-09-02T08:02:42;2.50;;;1.13;;
18592;SDS011;9426;54.118;17.948;2022-09-02T08:08:11;3.30;;;0.80;;
18592;SDS011;9426;54.118;17.948;2022-09-02T08:13:38;0.73;;;0.60;;
18592;SDS011;9426;54.118;17.948;2022-09-02T08:19:01;2.40;;;0.60;;
18592;SDS011;9426;54.118;17.948;2022-09-02T08:24:24;0.67;;;0.50;;
18592;SDS011;9426;54.118;17.948;2022-09-02T08:29:54;2.80;;;0.70;;
18592;SDS011;9426;54.118;17.948;2022-09-02T08:35:17;1.80;;;0.67;;
18592;SDS011;9426;54.118;17.948;2022-09-02T08:40:41;0.40;;;0.40;;
18592;SDS011;9426;54.118;17.948;2022-09-02T08:46:09;1.10;;;0.60;;
18592;SDS011;9426;54.118;17.948;2022-09-02T08:51:37;0.90;;;0.50;;
18592;SDS011;9426;54.118;17.948;2022-09-02T08:57:09;0.77;;;0.60;;
18592;SDS011;9426;54.118;17.948;2022-09-02T09:02:37;0.50;;;0.50;;
18592;SDS011;9426;54.118;17.948;2022-09-02T09:08:11;4.53;;;0.70;;
18592;SDS011;9426;54.118;17.948;2022-09-02T09:13:45;0.40;;;0.40;;
18592;SDS011;9426;54.118;17.948;2022-09-02T09:19:23;1.73;;;0.50;;
18592;SDS011;9426;54.118;17.948;2022-09-02T09:24:56;1.63;;;0.70;;
18592;SDS011;9426;54.118;17.948;2022-09-02T09:30:20;0.70;;;0.60;;
18592;SDS011;9426;54.118;17.948;2022-09-02T09:35:49;2.80;;;0.60;;
18592;SDS011;9426;54.118;17.948;2022-09-02T09:41:14;0.60;;;0.53;;
18592;SDS011;9426;54.118;17.948;2022-09-02T09:46:41;1.23;;;0.60;;
18592;SDS011;9426;54.118;17.948;2022-09-02T09:52:06;0.67;;;0.40;;
18592;SDS011;9426;54.118;17.948;2022-09-02T09:57:29;0.57;;;0.40;;
18592;SDS011;9426;54.118;17.948;2022-09-02T10:02:53;0.63;;;0.50;;
18592;SDS011;9426;54.118;17.948;2022-09-02T10:08:22;3.70;;;0.67;;
18592;SDS011;9426;54.118;17.948;2022-09-02T10:13:47;6.07;;;1.00;;
18592;SDS011;9426;54.118;17.948;2022-09-02T10:19:12;1.27;;;0.80;;
18592;SDS011;9426;54.118;17.948;2022-09-02T10:24:50;1.73;;;0.70;;
18592;SDS011;9426;54.118;17.948;2022-09-02T10:30:24;3.13;;;0.87;;
18592;SDS011;9426;54.118;17.948;2022-09-02T10:35:50;1.17;;;0.73;;
18592;SDS011;9426;54.118;17.948;2022-09-02T10:47:13;1.37;;;0.70;;
18592;SDS011;9426;54.118;17.948;2022-09-02T10:52:47;1.87;;;0.80;;
18592;SDS011;9426;54.118;17.948;2022-09-02T10:58:28;0.70;;;0.60;;
18592;SDS011;9426;54.118;17.948;2022-09-02T11:04:06;1.73;;;0.60;;
18592;SDS011;9426;54.118;17.948;2022-09-02T11:09:34;3.87;;;0.60;;
18592;SDS011;9426;54.118;17.948;2022-09-02T11:15:03;1.93;;;0.60;;
18592;SDS011;9426;54.118;17.948;2022-09-02T11:20:37;3.93;;;0.60;;
18592;SDS011;9426;54.118;17.948;2022-09-02T11:26:07;0.70;;;0.53;;
18592;SDS011;9426;54.118;17.948;2022-09-02T11:31:39;0.93;;;0.60;;
18592;SDS011;9426;54.118;17.948;2022-09-02T11:37:06;1.43;;;0.60;;
18592;SDS011;9426;54.118;17.948;2022-09-02T11:42:47;1.55;;;0.80;;
18592;SDS011;9426;54.118;17.948;2022-09-02T11:48:46;2.80;;;1.00;;
18592;SDS011;9426;54.118;17.948;2022-09-02T11:54:26;2.83;;;0.67;;
18592;SDS011;9426;54.118;17.948;2022-09-02T12:00:03;4.43;;;0.63;;
18592;SDS011;9426;54.118;17.948;2022-09-02T12:17:31;2.30;;;1.10;;
18592;SDS011;9426;54.118;17.948;2022-09-02T12:23:02;3.73;;;1.30;;
18592;SDS011;9426;54.118;17.948;2022-09-02T12:28:27;5.03;;;1.50;;
18592;SDS011;9426;54.118;17.948;2022-09-02T12:33:51;2.37;;;0.87;;
18592;SDS011;9426;54.118;17.948;2022-09-02T12:45:22;3.90;;;1.10;;
18592;SDS011;9426;54.118;17.948;2022-09-02T12:50:50;0.70;;;0.65;;
18592;SDS011;9426;54.118;17.948;2022-09-02T12:56:19;2.20;;;0.63;;
18592;SDS011;9426;54.118;17.948;2022-09-02T13:01:46;7.82;;;4.72;;
18592;SDS011;9426;54.118;17.948;2022-09-02T13:07:30;9.93;;;6.10;;
18592;SDS011;9426;54.118;17.948;2022-09-02T13:13:25;3.70;;;0.85;;
18592;SDS011;9426;54.118;17.948;2022-09-02T13:25:25;5.82;;;2.10;;
18592;SDS011;9426;54.118;17.948;2022-09-02T13:31:06;1.52;;;0.88;;
18592;SDS011;9426;54.118;17.948;2022-09-02T13:36:37;2.05;;;1.00;;
18592;SDS011;9426;54.118;17.948;2022-09-02T13:42:12;1.15;;;0.68;;
18592;SDS011;9426;54.118;17.948;2022-09-02T13:47:44;2.00;;;0.90;;
18592;SDS011;9426;54.118;17.948;2022-09-02T13:53:12;3.67;;;1.00;;
18592;SDS011;9426;54.118;17.948;2022-09-02T13:59:02;7.38;;;1.80;;
18592;SDS011;9426;54.118;17.948;2022-09-02T14:04:27;5.90;;;2.90;;
18592;SDS011;9426;54.118;17.948;2022-09-02T14:09:51;10.80;;;2.22;;
18592;SDS011;9426;54.118;17.948;2022-09-02T14:15:15;2.00;;;1.30;;
18592;SDS011;9426;54.118;17.948;2022-09-02T14:20:53;0.90;;;0.70;;
18592;SDS011;9426;54.118;17.948;2022-09-02T14:26:20;6.57;;;2.23;;
18592;SDS011;9426;54.118;17.948;2022-09-02T14:32:05;3.87;;;1.07;;
18592;SDS011;9426;54.118;17.948;2022-09-02T14:37:35;3.47;;;1.00;;
18592;SDS011;9426;54.118;17.948;2022-09-02T14:43:11;1.57;;;0.80;;
18592;SDS011;9426;54.118;17.948;2022-09-02T14:48:36;3.60;;;1.77;;
18592;SDS011;9426;54.118;17.948;2022-09-02T14:54:02;3.70;;;0.87;;
18592;SDS011;9426;54.118;17.948;2022-09-02T14:59:26;1.40;;;0.90;;
18592;SDS011;9426;54.118;17.948;2022-09-02T15:04:49;3.47;;;1.10;;
18592;SDS011;9426;54.118;17.948;2022-09-02T15:10:14;3.27;;;1.00;;
18592;SDS011;9426;54.118;17.948;2022-09-02T15:15:38;2.50;;;0.83;;
18592;SDS011;9426;54.118;17.948;2022-09-02T15:21:02;3.20;;;1.07;;
18592;SDS011;9426;54.118;17.948;2022-09-02T15:26:27;3.57;;;1.20;;
18592;SDS011;9426;54.118;17.948;2022-09-02T15:31:52;4.20;;;1.27;;
18592;SDS011;9426;54.118;17.948;2022-09-02T15:37:16;3.67;;;0.90;;
18592;SDS011;9426;54.118;17.948;2022-09-02T15:42:40;3.90;;;1.43;;
18592;SDS011;9426;54.118;17.948;2022-09-02T15:48:04;6.40;;;1.23;;
18592;SDS011;9426;54.118;17.948;2022-09-02T15:53:28;3.03;;;1.50;;
18592;SDS011;9426;54.118;17.948;2022-09-02T15:58:58;2.57;;;1.10;;
18592;SDS011;9426;54.118;17.948;2022-09-02T16:04:22;6.03;;;2.03;;
18592;SDS011;9426;54.118;17.948;2022-09-02T16:09:49;5.63;;;1.70;;
18592;SDS011;9426;54.118;17.948;2022-09-02T16:15:14;4.43;;;1.77;;
18592;SDS011;9426;54.118;17.948;2022-09-02T16:20:39;3.57;;;1.90;;
18592;SDS011;9426;54.118;17.948;2022-09-02T16:26:10;2.90;;;1.40;;
18592;SDS011;9426;54.118;17.948;2022-09-02T16:31:37;3.23;;;1.30;;
18592;SDS011;9426;54.118;17.948;2022-09-02T16:37:02;2.63;;;1.40;;
18592;SDS011;9426;54.118;17.948;2022-09-02T16:42:29;4.03;;;1.50;;
18592;SDS011;9426;54.118;17.948;2022-09-02T16:47:57;4.60;;;1.40;;
18592;SDS011;9426;54.118;17.948;2022-09-02T16:53:25;3.70;;;1.37;;
18592;SDS011;9426;54.118;17.948;2022-09-02T16:58:49;6.10;;;2.23;;
18592;SDS011;9426;54.118;17.948;2022-09-02T17:04:14;5.80;;;1.77;;
18592;SDS011;9426;54.118;17.948;2022-09-02T17:09:39;4.77;;;1.83;;
18592;SDS011;9426;54.118;17.948;2022-09-02T17:15:05;5.87;;;1.80;;
18592;SDS011;9426;54.118;17.948;2022-09-02T17:20:30;3.57;;;1.60;;
18592;SDS011;9426;54.118;17.948;2022-09-02T17:25:54;4.00;;;1.50;;
18592;SDS011;9426;54.118;17.948;2022-09-02T17:31:18;8.30;;;2.37;;
18592;SDS011;9426;54.118;17.948;2022-09-02T17:36:45;6.23;;;2.33;;
18592;SDS011;9426;54.118;17.948;2022-09-02T17:42:08;2.90;;;1.40;;
18592;SDS011;9426;54.118;17.948;2022-09-02T17:47:33;2.93;;;1.57;;
18592;SDS011;9426;54.118;17.948;2022-09-02T17:53:00;3.17;;;1.50;;
18592;SDS011;9426;54.118;17.948;2022-09-02T17:58:23;2.63;;;1.20;;
18592;SDS011;9426;54.118;17.948;2022-09-02T18:03:52;2.00;;;1.40;;
18592;SDS011;9426;54.118;17.948;2022-09-02T18:09:25;1.73;;;1.13;;
18592;SDS011;9426;54.118;17.948;2022-09-02T18:14:50;1.87;;;1.10;;
18592;SDS011;9426;54.118;17.948;2022-09-02T18:20:21;3.43;;;1.40;;
18592;SDS011;9426;54.118;17.948;2022-09-02T18:25:52;3.80;;;2.17;;
18592;SDS011;9426;54.118;17.948;2022-09-02T18:31:28;3.27;;;2.00;;
18592;SDS011;9426;54.118;17.948;2022-09-02T18:37:05;7.27;;;2.13;;
18592;SDS011;9426;54.118;17.948;2022-09-02T18:42:36;5.60;;;2.10;;
18592;SDS011;9426;54.118;17.948;2022-09-02T18:48:08;3.10;;;1.80;;
18592;SDS011;9426;54.118;17.948;2022-09-02T18:53:35;3.13;;;1.70;;
18592;SDS011;9426;54.118;17.948;2022-09-02T18:59:05;3.03;;;1.60;;
18592;SDS011;9426;54.118;17.948;2022-09-02T19:04:33;3.40;;;1.57;;
18592;SDS011;9426;54.118;17.948;2022-09-02T19:09:58;4.33;;;1.70;;
18592;SDS011;9426;54.118;17.948;2022-09-02T19:15:24;7.07;;;2.40;;
18592;SDS011;9426;54.118;17.948;2022-09-02T19:20:48;6.50;;;2.17;;
18592;SDS011;9426;54.118;17.948;2022-09-02T19:26:12;3.50;;;1.70;;
18592;SDS011;9426;54.118;17.948;2022-09-02T19:31:37;4.10;;;1.90;;
18592;SDS011;9426;54.118;17.948;2022-09-02T19:37:05;5.33;;;2.20;;
18592;SDS011;9426;54.118;17.948;2022-09-02T19:42:32;6.77;;;2.20;;
18592;SDS011;9426;54.118;17.948;2022-09-02T19:47:57;3.73;;;1.70;;
18592;SDS011;9426;54.118;17.948;2022-09-02T19:53:26;3.40;;;1.60;;
18592;SDS011;9426;54.118;17.948;2022-09-02T19:58:51;6.00;;;2.50;;
18592;SDS011;9426;54.118;17.948;2022-09-02T20:04:17;4.43;;;2.37;;
18592;SDS011;9426;54.118;17.948;2022-09-02T20:09:41;4.80;;;2.30;;
18592;SDS011;9426;54.118;17.948;2022-09-02T20:15:09;6.67;;;2.97;;
18592;SDS011;9426;54.118;17.948;2022-09-02T20:20:34;7.80;;;3.87;;
18592;SDS011;9426;54.118;17.948;2022-09-02T20:26:03;4.33;;;2.73;;
18592;SDS011;9426;54.118;17.948;2022-09-02T20:31:41;3.47;;;2.40;;
18592;SDS011;9426;54.118;17.948;2022-09-02T20:37:19;4.90;;;2.30;;
18592;SDS011;9426;54.118;17.948;2022-09-02T20:43:06;5.67;;;2.30;;
18592;SDS011;9426;54.118;17.948;2022-09-02T20:48:42;3.27;;;2.20;;
18592;SDS011;9426;54.118;17.948;2022-09-02T20:54:19;3.57;;;2.20;;
18592;SDS011;9426;54.118;17.948;2022-09-02T20:59:55;3.17;;;1.90;;
18592;SDS011;9426;54.118;17.948;2022-09-02T21:05:25;2.83;;;1.80;;
18592;SDS011;9426;54.118;17.948;2022-09-02T21:10:55;2.17;;;1.20;;
18592;SDS011;9426;54.118;17.948;2022-09-02T21:16:22;3.17;;;1.50;;
18592;SDS011;9426;54.118;17.948;2022-09-02T21:21:51;3.37;;;1.50;;
18592;SDS011;9426;54.118;17.948;2022-09-02T21:27:19;4.30;;;1.70;;
18592;SDS011;9426;54.118;17.948;2022-09-02T21:32:46;3.17;;;1.63;;
18592;SDS011;9426;54.118;17.948;2022-09-02T21:38:14;6.43;;;2.70;;
18592;SDS011;9426;54.118;17.948;2022-09-02T21:43:49;5.63;;;2.63;;
18592;SDS011;9426;54.118;17.948;2022-09-02T21:49:32;5.80;;;4.00;;
18592;SDS011;9426;54.118;17.948;2022-09-02T21:55:11;5.70;;;3.30;;
18592;SDS011;9426;54.118;17.948;2022-09-02T22:00:46;4.50;;;3.00;;
18592;SDS011;9426;54.118;17.948;2022-09-02T22:06:15;4.07;;;2.90;;
18592;SDS011;9426;54.118;17.948;2022-09-02T22:11:48;4.13;;;2.40;;
18592;SDS011;9426;54.118;17.948;2022-09-02T22:17:18;5.17;;;2.40;;
18592;SDS011;9426;54.118;17.948;2022-09-02T22:22:51;4.10;;;2.33;;
18592;SDS011;9426;54.118;17.948;2022-09-02T22:28:20;3.73;;;2.33;;
18592;SDS011;9426;54.118;17.948;2022-09-02T22:33:50;3.63;;;2.40;;
18592;SDS011;9426;54.118;17.948;2022-09-02T22:39:18;4.70;;;2.90;;
18592;SDS011;9426;54.118;17.948;2022-09-02T22:44:53;4.47;;;3.10;;
18592;SDS011;9426;54.118;17.948;2022-09-02T22:50:45;5.07;;;3.27;;
18592;SDS011;9426;54.118;17.948;2022-09-02T22:56:32;4.70;;;2.40;;
18592;SDS011;9426;54.118;17.948;2022-09-02T23:02:05;3.63;;;2.47;;
18592;SDS011;9426;54.118;17.948;2022-09-02T23:07:38;2.93;;;2.20;;
18592;SDS011;9426;54.118;17.948;2022-09-02T23:13:02;2.43;;;1.83;;
18592;SDS011;9426;54.118;17.948;2022-09-02T23:18:35;3.00;;;1.93;;
18592;SDS011;9426;54.118;17.948;2022-09-02T23:24:13;5.13;;;1.90;;
18592;SDS011;9426;54.118;17.948;2022-09-02T23:29:43;2.80;;;1.77;;
18592;SDS011;9426;54.118;17.948;2022-09-02T23:35:14;3.03;;;1.70;;
18592;SDS011;9426;54.118;17.948;2022-09-02T23:40:47;2.20;;;1.70;;
18592;SDS011;9426;54.118;17.948;2022-09-02T23:46:17;4.70;;;1.97;;
18592;SDS011;9426;54.118;17.948;2022-09-02T23:51:54;3.57;;;1.97;;
18592;SDS011;9426;54.118;17.948;2022-09-02T23:57:27;5.60;;;2.20;;
